Time;durP1;ratioP1;P1;durP2;ratioP2;P2;SDS_P1;SDS_P2;PMS_P1;PMS_P2;Temp;Humidity;BMP_temperature;BMP_pressure;BME280_temperature;BME280_humidity;BME280_pressure;Samples;Min_cycle;Max_cycle;Signal;HPM_P1;HPM_P2
2021/12/12 00:00:31;;;;;;;10.32;4.38;;;;;;;8.43;62.62;102016.25;4939568;28;119274;-68
2021/12/12 00:03:06;;;;;;;11.60;4.63;;;;;;;8.45;62.61;102014.44;4941686;28;123490;-69
2021/12/12 00:05:39;;;;;;;12.50;4.77;;;;;;;8.44;62.17;102015.31;4930324;28;123708;-68
2021/12/12 00:08:08;;;;;;;8.87;4.80;;;;;;;8.45;62.60;102014.44;4936836;28;120657;-68
2021/12/12 00:10:38;;;;;;;8.15;4.03;;;;;;;8.47;62.73;102025.84;4937145;28;120056;-69
2021/12/12 00:13:20;;;;;;;12.10;4.13;;;;;;;8.48;62.31;102027.59;4932115;28;122893;-68
2021/12/12 00:15:48;;;;;;;10.68;4.85;;;;;;;8.49;62.60;102021.41;4940105;28;123207;-68
2021/12/12 00:18:15;;;;;;;9.20;4.53;;;;;;;8.51;62.53;102019.59;4944451;28;119581;-68
2021/12/12 00:20:44;;;;;;;12.18;4.28;;;;;;;8.51;62.38;102004.66;4936877;28;118707;-69
2021/12/12 00:23:11;;;;;;;9.32;4.30;;;;;;;8.52;62.22;102005.53;4947103;28;123792;-68
2021/12/12 00:25:43;;;;;;;10.23;4.20;;;;;;;8.53;62.62;102007.25;4942075;28;123703;-68
2021/12/12 00:28:11;;;;;;;12.63;4.25;;;;;;;8.55;62.34;102000.16;4941917;28;119385;-68
2021/12/12 00:30:39;;;;;;;12.13;4.07;;;;;;;8.55;62.27;102001.06;4935298;28;118916;-68
2021/12/12 00:33:06;;;;;;;11.23;4.05;;;;;;;8.56;62.18;101999.28;4940734;28;124562;-68
2021/12/12 00:35:33;;;;;;;13.25;3.85;;;;;;;8.57;62.35;101987.84;4938687;28;124418;-68
2021/12/12 00:38:07;;;;;;;12.35;3.88;;;;;;;8.57;62.16;101987.84;4941216;28;118499;-68
2021/12/12 00:40:37;;;;;;;13.23;3.70;;;;;;;8.59;62.41;101996.59;4949964;28;117885;-69
2021/12/12 00:43:14;;;;;;;9.32;3.92;;;;;;;8.58;62.34;101984.28;4943008;28;124176;-69
2021/12/12 00:45:41;;;;;;;9.77;3.78;;;;;;;8.60;62.30;101987.75;4939564;28;123989;-69
2021/12/12 00:48:09;;;;;;;12.05;3.90;;;;;;;8.60;62.54;101977.19;4945587;28;119291;-68
2021/12/12 00:50:42;;;;;;;10.57;3.80;;;;;;;8.61;62.17;101973.69;4943852;28;118819;-68
2021/12/12 00:53:13;;;;;;;12.73;3.90;;;;;;;8.62;62.13;101980.69;4940662;28;123927;-69
2021/12/12 00:55:43;;;;;;;11.52;3.75;;;;;;;8.64;62.28;101976.25;4940868;28;122680;-68
2021/12/12 00:58:13;;;;;;;13.95;3.67;;;;;;;8.65;62.17;101980.63;4940582;28;120291;-68
2021/12/12 01:00:48;;;;;;;14.98;4.15;;;;;;;8.67;62.19;101981.47;4936847;28;121019;-68
2021/12/12 01:03:29;;;;;;;10.50;3.45;;;;;;;8.69;62.53;101977.03;4939700;28;123733;-68
2021/12/12 01:05:58;;;;;;;13.65;3.47;;;;;;;8.69;62.37;101969.09;4943305;28;123974;-68
2021/12/12 01:08:27;;;;;;;10.93;3.85;;;;;;;8.70;62.25;101967.31;4942898;28;119390;-69
2021/12/12 01:11:05;;;;;;;9.10;3.15;;;;;;;8.71;62.27;101963.81;4938233;28;118823;-68
2021/12/12 01:13:32;;;;;;;12.77;3.88;;;;;;;8.71;62.30;101959.38;4941915;28;123986;-68
2021/12/12 01:16:13;;;;;;;14.10;4.18;;;;;;;8.73;62.05;101957.56;4942574;28;122595;-68
2021/12/12 01:18:46;;;;;;;11.07;3.60;;;;;;;8.76;62.11;101959.31;4940633;28;117247;-68
2021/12/12 01:21:19;;;;;;;8.70;3.35;;;;;;;8.78;62.07;101970.72;4935454;28;120027;-68
2021/12/12 01:23:55;;;;;;;6.80;3.42;;;;;;;8.79;62.22;101971.56;4943519;28;123764;-68
2021/12/12 01:26:23;;;;;;;11.93;3.65;;;;;;;8.80;62.30;101968.00;4934815;28;124496;-69
2021/12/12 01:28:54;;;;;;;13.65;4.13;;;;;;;8.82;62.20;101966.25;4948456;28;119335;-69
2021/12/12 01:31:26;;;;;;;9.77;3.70;;;;;;;8.83;62.14;101962.69;4945460;28;118910;-68
2021/12/12 01:34:09;;;;;;;9.15;3.67;;;;;;;8.83;62.33;101967.97;4941656;28;124418;-69
2021/12/12 01:36:52;;;;;;;13.43;3.83;;;;;;;8.84;62.37;101969.72;4938906;28;123888;-68
2021/12/12 01:39:22;;;;;;;15.35;3.65;;;;;;;8.85;61.90;101960.88;4940012;28;119058;-68
2021/12/12 01:41:55;;;;;;;7.80;3.65;;;;;;;8.84;62.18;101964.44;4945947;28;118713;-70
2021/12/12 01:44:31;;;;;;;9.80;3.90;;;;;;;8.84;62.03;101961.78;4937952;28;125581;-69
2021/12/12 01:47:13;;;;;;;7.93;3.45;;;;;;;8.83;62.33;101967.97;4932638;28;123406;-69
2021/12/12 01:49:45;;;;;;;13.48;3.88;;;;;;;8.86;62.32;101967.91;4947431;28;120385;-69
2021/12/12 01:52:16;;;;;;;12.30;3.83;;;;;;;8.87;62.27;101975.81;4942463;28;120231;-69
2021/12/12 01:54:47;;;;;;;11.25;3.78;;;;;;;8.88;62.43;101974.03;4945525;28;123999;-69
2021/12/12 01:57:20;;;;;;;11.25;3.78;;;;;;;8.89;62.34;101962.56;4943155;28;123987;-69
2021/12/12 01:59:49;;;;;;;11.60;4.10;;;;;;;8.90;62.18;101969.59;4943671;28;119388;-70
2021/12/12 02:02:25;;;;;;;8.43;3.40;;;;;;;8.89;62.22;101963.44;4942550;28;117967;-71
2021/12/12 02:04:56;;;;;;;9.05;3.70;;;;;;;8.91;62.43;101958.09;4934529;28;124271;-69
2021/12/12 02:07:28;;;;;;;10.10;3.70;;;;;;;8.93;62.39;101953.69;4939294;28;123511;-69
2021/12/12 02:10:00;;;;;;;9.70;4.28;;;;;;;8.93;62.25;101965.13;4938785;28;118097;-69
2021/12/12 02:12:27;;;;;;;8.68;4.13;;;;;;;8.94;62.31;101965.97;4936420;28;118715;-69
2021/12/12 02:14:57;;;;;;;14.32;4.70;;;;;;;8.94;62.26;101963.34;4938846;28;123965;-70
2021/12/12 02:17:32;;;;;;;10.73;3.80;;;;;;;8.94;62.20;101960.69;4944332;28;124917;-70
2021/12/12 02:20:12;;;;;;;8.98;3.38;;;;;;;8.96;62.26;101964.19;4937775;28;119110;-69
2021/12/12 02:36:36;;;;;;;9.68;4.07;;;;;;;8.98;62.32;101951.81;4898513;28;123663;-69
2021/12/12 02:39:08;;;;;;;10.15;4.28;;;;;;;8.99;62.46;101953.56;4933158;28;123620;-69
2021/12/12 02:41:35;;;;;;;10.50;4.53;;;;;;;8.99;62.52;101950.91;4938488;28;120689;-69
2021/12/12 02:44:05;;;;;;;11.48;4.28;;;;;;;9.00;62.63;101950.00;4939388;28;119518;-69
2021/12/12 02:46:35;;;;;;;10.13;4.28;;;;;;;9.02;62.55;101948.19;4934688;28;123985;-69
2021/12/12 02:49:09;;;;;;;14.15;4.35;;;;;;;9.03;62.48;101943.78;4937951;28;123786;-69
2021/12/12 02:51:41;;;;;;;10.20;4.15;;;;;;;9.04;62.41;101946.41;4944743;28;118129;-68
2021/12/12 02:54:09;;;;;;;12.38;3.85;;;;;;;9.05;62.24;101937.56;4940137;28;119277;-69
2021/12/12 02:56:40;;;;;;;11.25;4.03;;;;;;;9.07;62.62;101946.31;4942254;28;123743;-69
2021/12/12 02:59:12;;;;;;;10.38;3.90;;;;;;;9.06;62.64;101939.31;4938732;28;124570;-69
2021/12/12 03:01:52;;;;;;;14.45;4.20;;;;;;;9.07;62.30;101935.75;4937891;28;118328;-69
2021/12/12 03:04:21;;;;;;;11.35;4.03;;;;;;;9.09;62.54;101944.53;4935249;28;118708;-69
2021/12/12 03:06:48;;;;;;;9.30;4.22;;;;;;;9.10;62.31;101941.00;4941242;28;125402;-70
2021/12/12 03:09:31;;;;;;;11.70;4.22;;;;;;;9.09;62.77;101936.59;4947288;28;124100;-69
2021/12/12 03:12:05;;;;;;;9.77;4.00;;;;;;;9.12;62.48;101923.31;4920960;28;118342;-69
2021/12/12 03:14:34;;;;;;;14.15;4.30;;;;;;;9.12;62.49;101933.91;4943776;28;119130;-69
2021/12/12 03:17:06;;;;;;;9.00;4.32;;;;;;;9.11;62.43;101926.84;4946643;28;123708;-69
2021/12/12 03:19:33;;;;;;;12.68;3.97;;;;;;;9.12;62.70;101922.47;4944657;28;124441;-69
2021/12/12 03:22:01;;;;;;;13.10;4.30;;;;;;;9.12;62.75;101919.81;4943761;28;120145;-70
2021/12/12 03:24:28;;;;;;;9.85;4.00;;;;;;;9.11;62.74;101911.00;4940892;28;118925;-70
2021/12/12 03:26:59;;;;;;;15.05;4.22;;;;;;;9.12;62.64;101907.47;4946968;28;123716;-69
2021/12/12 03:29:27;;;;;;;15.30;4.22;;;;;;;9.13;62.82;101914.47;4946370;28;123770;-70
2021/12/12 03:32:00;;;;;;;14.23;4.50;;;;;;;9.13;62.80;101909.19;4943209;28;120197;-69
2021/12/12 03:34:37;;;;;;;11.82;4.18;;;;;;;9.14;62.52;101910.94;4944936;28;120386;-70
2021/12/12 03:37:08;;;;;;;16.80;4.13;;;;;;;9.14;62.70;101910.94;4942481;28;125102;-70
2021/12/12 03:39:39;;;;;;;10.80;4.35;;;;;;;9.14;62.75;101900.38;4939359;28;124634;-70
2021/12/12 03:42:17;;;;;;;11.20;3.92;;;;;;;9.12;62.83;101891.59;4956333;28;119995;-70
2021/12/12 03:44:45;;;;;;;9.60;4.38;;;;;;;9.14;62.85;101903.00;4939246;28;118703;-70
2021/12/12 03:47:21;;;;;;;10.70;3.38;;;;;;;9.14;62.78;101900.38;4940961;28;124203;-69
2021/12/12 03:49:49;;;;;;;11.70;4.20;;;;;;;9.15;62.78;101891.56;4944560;28;124308;-70
2021/12/12 03:52:19;;;;;;;12.50;4.00;;;;;;;9.14;63.03;101889.81;4943423;28;119191;-69
2021/12/12 03:54:48;;;;;;;9.82;4.32;;;;;;;9.16;62.94;101887.13;4942289;28;118600;-70
2021/12/12 03:57:17;;;;;;;12.13;4.43;;;;;;;9.18;62.80;101887.09;4945622;28;123924;-70
2021/12/12 03:59:45;;;;;;;10.13;3.92;;;;;;;9.18;63.13;101895.03;4943628;28;124866;-70
2021/12/12 04:02:12;;;;;;;12.88;4.40;;;;;;;9.20;63.03;101898.50;4945903;28;120740;-69
2021/12/12 04:04:43;;;;;;;13.45;4.40;;;;;;;9.21;62.99;101889.66;4943698;28;119136;-69
2021/12/12 04:07:18;;;;;;;8.65;3.90;;;;;;;9.20;62.98;101882.66;4945947;28;124085;-70
2021/12/12 04:09:45;;;;;;;11.40;4.22;;;;;;;9.22;62.99;101896.69;4943773;28;123786;-68
2021/12/12 04:12:15;;;;;;;9.27;3.88;;;;;;;9.23;63.21;101886.09;4943660;28;118953;-69
2021/12/12 04:14:43;;;;;;;12.52;4.32;;;;;;;9.25;63.30;101886.03;4946594;28;118659;-69
2021/12/12 04:17:14;;;;;;;8.95;4.03;;;;;;;9.26;63.07;101898.34;4943383;28;123608;-69
2021/12/12 04:19:44;;;;;;;10.85;3.65;;;;;;;9.28;63.17;101896.53;4942599;28;124406;-70
2021/12/12 04:22:11;;;;;;;10.80;3.80;;;;;;;9.29;63.51;101903.59;4940026;28;121138;-69
2021/12/12 04:24:42;;;;;;;11.20;4.28;;;;;;;9.30;63.29;101906.16;4943411;28;119809;-69
2021/12/12 04:27:11;;;;;;;11.18;3.40;;;;;;;9.32;63.32;101908.78;4938897;28;123998;-69
2021/12/12 04:29:42;;;;;;;11.35;3.75;;;;;;;9.34;63.30;101912.25;4939790;28;122832;-69
2021/12/12 04:32:12;;;;;;;10.48;3.80;;;;;;;9.37;63.46;101911.34;4942331;28;119473;-70
2021/12/12 04:34:47;;;;;;;9.57;3.65;;;;;;;9.39;63.41;101910.41;4943119;28;117998;-70
2021/12/12 04:37:15;;;;;;;9.20;3.80;;;;;;;9.40;63.67;101912.16;4944349;28;123772;-70
2021/12/12 04:39:48;;;;;;;11.82;3.72;;;;;;;9.43;63.59;101912.06;4946136;28;123412;-69
2021/12/12 04:42:20;;;;;;;9.68;3.72;;;;;;;9.44;63.70;101903.22;4942782;28;120007;-69
2021/12/12 04:44:50;;;;;;;9.63;3.50;;;;;;;9.46;63.40;101904.06;4945659;28;118956;-69
2021/12/12 04:50:54;;;;;;;7.93;3.17;;;;;;;9.47;63.54;101908.44;4943064;28;123966;-69
2021/12/12 04:53:32;;;;;;;7.82;3.25;;;;;;;9.49;63.65;101911.94;4915931;28;119877;-69
2021/12/12 04:56:06;;;;;;;4.47;2.78;;;;;;;9.49;63.72;101917.22;4941821;28;119745;-69
2021/12/12 04:58:42;;;;;;;8.90;3.08;;;;;;;9.51;63.68;101910.13;4942025;28;123596;-69
2021/12/12 05:01:24;;;;;;;5.85;3.20;;;;;;;9.53;63.29;101913.59;4946551;28;123744;-69
2021/12/12 05:04:00;;;;;;;7.65;3.17;;;;;;;9.57;63.65;101908.22;4943872;28;118294;-69
2021/12/12 05:06:40;;;;;;;8.50;2.90;;;;;;;9.59;63.93;101906.41;4943732;28;119702;-68
2021/12/12 05:09:13;;;;;;;5.47;2.40;;;;;;;9.61;63.98;101909.91;4944765;28;123661;-69
2021/12/12 05:12:03;;;;;;;9.52;3.10;;;;;;;9.63;63.78;101913.38;4942828;28;123893;-69
2021/12/12 05:14:39;;;;;;;4.30;2.45;;;;;;;9.67;63.88;101915.03;4940166;28;120062;-70
2021/12/12 05:17:14;;;;;;;7.53;2.72;;;;;;;9.68;64.11;101922.94;4945518;28;119559;-69
2021/12/12 05:19:48;;;;;;;6.60;3.05;;;;;;;9.71;63.80;101911.41;4953436;28;123761;-69
2021/12/12 05:22:19;;;;;;;9.65;3.10;;;;;;;9.72;63.71;101908.72;4946766;28;123633;-69
2021/12/12 05:24:50;;;;;;;7.72;3.20;;;;;;;9.75;64.09;101913.06;4946652;28;119585;-70
2021/12/12 05:27:20;;;;;;;7.07;2.45;;;;;;;9.79;64.02;101912.09;4941993;28;118800;-69
2021/12/12 05:30:10;;;;;;;8.82;3.13;;;;;;;9.80;64.08;101911.19;4948332;28;124763;-70
2021/12/12 05:32:39;;;;;;;6.30;2.63;;;;;;;9.84;63.85;101912.84;4943193;28;123516;-69
2021/12/12 05:35:08;;;;;;;6.18;2.90;;;;;;;9.87;64.16;101920.72;4945874;28;119880;-69
2021/12/12 05:37:37;;;;;;;6.38;2.72;;;;;;;9.88;64.06;101914.50;4943364;28;120183;-69
2021/12/12 05:40:11;;;;;;;5.22;2.75;;;;;;;9.90;63.98;101917.13;4942413;28;123825;-69
2021/12/12 05:42:39;;;;;;;5.55;2.58;;;;;;;9.92;63.89;101921.47;4944818;28;123811;-69
2021/12/12 05:45:07;;;;;;;4.85;2.92;;;;;;;9.94;64.11;101916.13;4940934;28;119411;-69
2021/12/12 05:47:36;;;;;;;4.22;2.60;;;;;;;9.97;64.06;101917.84;4943412;28;118913;-69
2021/12/12 05:50:09;;;;;;;5.40;3.17;;;;;;;10.00;63.85;101928.34;4942986;28;124696;-69
2021/12/12 05:52:37;;;;;;;6.88;3.08;;;;;;;10.00;64.07;101923.94;4942913;28;123667;-69
2021/12/12 05:55:07;;;;;;;8.05;3.10;;;;;;;10.02;64.09;101921.22;4946161;28;119412;-70
2021/12/12 05:57:35;;;;;;;4.78;2.80;;;;;;;10.03;64.08;101912.38;4945184;28;119826;-69
2021/12/12 06:00:08;;;;;;;4.78;2.80;;;;;;;10.04;63.92;101908.81;4945608;28;124220;-70
2021/12/12 06:02:36;;;;;;;10.60;3.28;;;;;;;10.06;64.25;101917.63;4930858;28;122228;-70
2021/12/12 06:05:04;;;;;;;5.20;3.05;;;;;;;10.08;64.15;101931.69;4943539;28;119965;-69
2021/12/12 06:07:32;;;;;;;5.32;3.22;;;;;;;10.09;64.08;101930.75;4948774;28;119889;-69
2021/12/12 06:10:07;;;;;;;7.63;3.58;;;;;;;10.07;64.01;101924.63;4944299;28;123941;-70
2021/12/12 06:12:36;;;;;;;5.55;3.00;;;;;;;10.07;63.77;101914.03;4944816;28;124535;-69
2021/12/12 06:15:09;;;;;;;6.45;3.10;;;;;;;10.07;63.99;101920.19;4946216;28;118669;-69
2021/12/12 06:17:37;;;;;;;7.10;3.33;;;;;;;10.08;63.92;101915.81;4932566;28;118856;-70
2021/12/12 06:20:07;;;;;;;6.00;3.30;;;;;;;10.09;64.12;101917.53;4938644;28;123850;-69
2021/12/12 06:22:35;;;;;;;7.45;3.70;;;;;;;10.09;64.08;101917.53;4934932;28;124399;-70
2021/12/12 06:25:04;;;;;;;8.00;3.53;;;;;;;10.10;64.00;101924.56;4940646;28;118955;-70
2021/12/12 06:27:32;;;;;;;7.25;3.55;;;;;;;10.10;64.04;101919.28;4946305;28;118883;-69
2021/12/12 06:29:59;;;;;;;8.13;3.85;;;;;;;10.09;64.38;101912.22;4947348;28;124327;-69
2021/12/12 06:32:26;;;;;;;5.80;3.50;;;;;;;10.09;64.08;101928.09;4948472;28;123960;-70
2021/12/12 06:34:56;;;;;;;6.45;3.83;;;;;;;10.11;63.93;101926.28;4949107;28;119047;-69
2021/12/12 06:37:25;;;;;;;8.15;4.30;;;;;;;10.13;64.12;101928.00;4948584;28;119348;-68
2021/12/12 06:39:54;;;;;;;6.32;4.13;;;;;;;10.14;63.98;101926.22;4946595;28;124888;-69
2021/12/12 06:42:21;;;;;;;6.45;3.75;;;;;;;10.15;64.22;101927.94;4948351;28;123900;-69
2021/12/12 06:44:48;;;;;;;8.82;4.07;;;;;;;10.16;64.20;101929.69;4948902;28;119818;-70
2021/12/12 06:47:17;;;;;;;8.07;4.30;;;;;;;10.17;64.08;101931.44;4950004;28;119367;-70
2021/12/12 06:49:46;;;;;;;9.50;4.30;;;;;;;10.20;64.19;101925.19;4947914;28;123777;-69
2021/12/12 06:52:14;;;;;;;5.95;4.07;;;;;;;10.20;64.34;101926.06;4948183;28;124579;-69
2021/12/12 06:54:42;;;;;;;7.78;4.88;;;;;;;10.21;64.09;101922.50;4948162;28;120543;-69
2021/12/12 06:57:14;;;;;;;7.70;4.95;;;;;;;10.22;64.36;101924.22;4948597;28;120099;-69
2021/12/12 06:59:43;;;;;;;7.82;4.63;;;;;;;10.23;64.21;101920.69;4947752;28;124141;-69
2021/12/12 07:02:11;;;;;;;7.18;4.82;;;;;;;10.24;64.43;101913.59;4946368;28;123213;-69
2021/12/12 07:04:42;;;;;;;8.85;4.40;;;;;;;10.24;64.25;101901.22;4948553;28;119823;-69
2021/12/12 07:07:14;;;;;;;7.20;4.88;;;;;;;10.26;63.90;101910.00;4941539;28;119284;-69
2021/12/12 07:09:43;;;;;;;8.68;4.95;;;;;;;10.25;64.31;101900.34;4937443;28;124527;-69
2021/12/12 07:12:13;;;;;;;8.48;4.55;;;;;;;10.27;64.33;101906.44;4941861;28;123832;-68
2021/12/12 07:14:42;;;;;;;9.15;4.82;;;;;;;10.28;64.21;101908.22;4944262;28;118228;-70
2021/12/12 07:17:09;;;;;;;7.93;4.72;;;;;;;10.29;64.30;101915.22;4941647;28;118658;-70
2021/12/12 07:19:38;;;;;;;8.90;5.38;;;;;;;10.30;64.57;101919.66;4940048;28;124787;-70
2021/12/12 07:22:06;;;;;;;8.10;4.65;;;;;;;10.32;64.29;101924.88;4941805;28;123810;-69
2021/12/12 07:24:34;;;;;;;8.68;5.13;;;;;;;10.35;64.32;101923.94;4943050;28;118240;-69
2021/12/12 07:27:01;;;;;;;9.07;5.88;;;;;;;10.36;64.52;101928.31;4940422;28;119608;-69
2021/12/12 07:29:30;;;;;;;10.10;5.45;;;;;;;10.38;64.29;101927.41;4928609;28;124067;-69
2021/12/12 07:31:58;;;;;;;9.27;5.70;;;;;;;10.41;64.36;101929.06;4929496;28;123707;-69
2021/12/12 07:34:25;;;;;;;8.65;5.45;;;;;;;10.44;64.11;101934.31;4928645;28;119400;-69
2021/12/12 07:36:56;;;;;;;9.68;5.70;;;;;;;10.45;64.31;101930.72;4927340;28;117946;-69
2021/12/12 07:39:25;;;;;;;10.00;5.97;;;;;;;10.47;64.44;101939.50;4927224;28;123821;-69
2021/12/12 07:41:54;;;;;;;8.95;5.80;;;;;;;10.48;64.50;101930.66;4928147;28;124274;-69
2021/12/12 07:44:26;;;;;;;10.65;6.22;;;;;;;10.48;64.62;101942.13;4924709;28;120417;-69
2021/12/12 07:46:54;;;;;;;10.05;6.00;;;;;;;10.51;64.60;101935.88;4945509;28;119231;-70
2021/12/12 07:49:24;;;;;;;10.68;5.63;;;;;;;10.52;64.61;101949.06;4944427;28;124034;-69
2021/12/12 07:51:51;;;;;;;11.98;6.00;;;;;;;10.54;64.59;101941.06;4937590;28;122834;-69
2021/12/12 07:54:19;;;;;;;14.77;5.95;;;;;;;10.56;64.59;101944.56;4943865;28;118502;-70
2021/12/12 07:56:47;;;;;;;10.57;5.40;;;;;;;10.59;64.68;101952.44;4941886;28;118996;-69
2021/12/12 07:59:16;;;;;;;11.95;6.13;;;;;;;10.60;64.40;101951.50;4942304;28;124307;-69
2021/12/12 08:01:45;;;;;;;9.30;6.03;;;;;;;10.62;64.26;101960.28;4939601;28;123866;-68
2021/12/12 08:04:14;;;;;;;9.60;5.82;;;;;;;10.64;64.66;101958.47;4942319;28;119303;-68
2021/12/12 08:06:42;;;;;;;9.95;6.07;;;;;;;10.66;64.54;101967.25;4942828;28;118796;-69
2021/12/12 08:09:11;;;;;;;11.15;6.00;;;;;;;10.68;64.70;101970.72;4941595;28;124319;-67
2021/12/12 08:11:39;;;;;;;7.72;5.22;;;;;;;10.73;64.60;101977.66;4926077;28;123074;-69
2021/12/12 08:14:12;;;;;;;10.75;5.85;;;;;;;10.73;64.79;101978.53;4941619;28;119228;-69
2021/12/12 08:16:40;;;;;;;10.55;5.60;;;;;;;10.76;64.47;101978.47;4932081;28;117986;-68
2021/12/12 08:19:07;;;;;;;8.65;5.53;;;;;;;10.78;64.80;101973.13;4927588;28;124211;-70
2021/12/12 08:21:35;;;;;;;9.35;5.57;;;;;;;10.81;64.55;101980.97;4925706;28;123548;-70
2021/12/12 08:24:06;;;;;;;13.25;5.63;;;;;;;10.81;64.78;101979.22;4928323;28;119912;-70
2021/12/12 08:26:36;;;;;;;10.35;5.97;;;;;;;10.86;64.71;101989.66;4926857;28;119275;-70
2021/12/12 08:29:09;;;;;;;10.95;5.68;;;;;;;10.88;64.65;101993.16;4928632;28;124505;-69
2021/12/12 08:31:37;;;;;;;9.68;5.40;;;;;;;10.90;64.58;101991.31;4926990;28;123503;-69
2021/12/12 08:34:07;;;;;;;10.43;5.70;;;;;;;10.93;64.61;101996.53;4928960;28;120244;-69
2021/12/12 08:36:37;;;;;;;12.43;5.88;;;;;;;10.95;64.89;101997.38;4933244;28;120256;-69
2021/12/12 08:39:06;;;;;;;11.82;6.13;;;;;;;10.99;64.88;101991.06;4932077;28;124212;-69
2021/12/12 08:41:35;;;;;;;10.95;6.07;;;;;;;11.01;64.45;102005.13;4930239;28;124370;-69
2021/12/12 08:44:06;;;;;;;10.27;5.85;;;;;;;11.03;64.62;101999.81;4929976;28;119151;-69
2021/12/12 08:46:33;;;;;;;10.80;5.95;;;;;;;11.03;64.64;101998.00;4934130;28;118905;-70
2021/12/12 08:49:01;;;;;;;8.93;5.72;;;;;;;11.07;64.65;101994.34;4930517;28;124143;-69
2021/12/12 08:51:34;;;;;;;13.60;6.25;;;;;;;11.10;64.68;101993.41;4930283;28;123649;-70
2021/12/12 08:54:13;;;;;;;11.30;5.97;;;;;;;11.12;64.93;101991.59;4945993;28;118774;-69
2021/12/12 08:56:46;;;;;;;10.77;5.97;;;;;;;11.14;64.79;102010.09;4930368;28;119485;-69
2021/12/12 08:59:20;;;;;;;11.40;6.00;;;;;;;11.14;64.96;102004.81;4928218;28;124685;-70
2021/12/12 09:01:50;;;;;;;12.27;6.10;;;;;;;11.17;64.97;102004.69;4932174;28;123502;-70
2021/12/12 09:04:18;;;;;;;12.10;5.70;;;;;;;11.19;64.92;102002.88;4933184;28;119799;-70
2021/12/12 09:07:19;;;;;;;12.65;6.53;;;;;;;11.21;64.92;102011.69;4927624;28;118807;-69
2021/12/12 09:10:09;;;;;;;16.25;6.22;;;;;;;11.25;64.65;102015.97;4938567;28;123866;-70
2021/12/12 09:12:48;;;;;;;10.93;5.72;;;;;;;11.26;64.86;102020.34;4927807;28;123714;-70
2021/12/12 09:15:36;;;;;;;9.30;5.90;;;;;;;11.26;65.14;102017.69;4929681;28;119550;-69
2021/12/12 09:18:11;;;;;;;11.60;5.90;;;;;;;11.29;64.82;102026.44;4928809;28;118120;-70
2021/12/12 09:20:56;;;;;;;10.60;5.40;;;;;;;11.31;64.91;102034.34;4928038;28;124477;-69
2021/12/12 09:23:31;;;;;;;12.05;5.70;;;;;;;11.34;64.96;102044.00;4929062;28;123460;-70
2021/12/12 09:26:15;;;;;;;9.03;5.10;;;;;;;11.37;64.82;102044.78;4929937;28;120043;-70
2021/12/12 09:28:53;;;;;;;11.60;5.40;;;;;;;11.38;65.11;102041.22;4929266;28;120480;-70
2021/12/12 09:31:39;;;;;;;10.70;5.38;;;;;;;11.40;65.00;102050.00;4928336;28;123950;-71
2021/12/12 09:34:16;;;;;;;10.65;4.85;;;;;;;11.42;65.18;102058.78;4929613;28;124129;-70
2021/12/12 09:36:55;;;;;;;9.00;4.97;;;;;;;11.44;64.84;102062.25;4928247;28;120059;-70
2021/12/12 09:39:32;;;;;;;10.45;5.28;;;;;;;11.46;64.83;102055.13;4928980;28;118045;-70
2021/12/12 09:42:26;;;;;;;14.30;5.35;;;;;;;11.48;65.01;102045.31;4928707;28;124865;-70
2021/12/12 09:45:11;;;;;;;10.50;5.57;;;;;;;11.49;65.05;102059.47;4927192;28;124410;-70
2021/12/12 09:51:17;;;;;;;9.68;5.10;;;;;;;11.54;65.20;102056.69;4933647;28;118660;-69
2021/12/12 09:53:57;;;;;;;9.98;4.97;;;;;;;11.57;65.14;102067.22;4929479;28;124882;-70
2021/12/12 09:56:34;;;;;;;9.68;4.97;;;;;;;11.58;65.25;102058.31;4932911;28;124943;-70
2021/12/12 09:59:23;;;;;;;8.80;4.95;;;;;;;11.59;65.13;102060.06;4937077;28;119599;-70
2021/12/12 10:02:04;;;;;;;8.77;5.05;;;;;;;11.64;65.12;102058.13;4932938;28;119255;-70
2021/12/12 10:04:59;;;;;;;11.13;5.75;;;;;;;11.67;65.29;102058.06;4938350;28;123769;-71
2021/12/12 10:07:53;;;;;;;13.27;5.78;;;;;;;11.69;65.28;102050.91;4960304;28;123858;-70
2021/12/12 10:10:34;;;;;;;11.45;5.80;;;;;;;11.72;65.16;102058.78;4968285;28;118799;-69
2021/12/12 10:13:16;;;;;;;11.02;5.40;;;;;;;11.75;65.24;102061.34;4954168;28;119933;-71
2021/12/12 10:15:51;;;;;;;10.32;5.60;;;;;;;11.77;65.32;102059.53;4948162;28;124874;-71
2021/12/12 10:18:40;;;;;;;11.00;6.13;;;;;;;11.80;65.26;102053.25;4946733;28;124512;-71
2021/12/12 10:21:12;;;;;;;10.70;6.10;;;;;;;11.82;65.21;102052.28;4948160;28;120954;-71
2021/12/12 10:23:50;;;;;;;12.02;6.20;;;;;;;11.85;65.28;102046.03;4947304;28;120592;-72
2021/12/12 10:26:42;;;;;;;10.60;6.28;;;;;;;11.86;65.21;102047.75;4948663;28;124484;-72
2021/12/12 10:29:27;;;;;;;14.32;6.57;;;;;;;11.88;65.16;102051.22;4945873;28;124027;-71
2021/12/12 10:32:01;;;;;;;12.97;6.80;;;;;;;11.90;65.27;102059.16;4947604;28;119761;-71
2021/12/12 10:34:35;;;;;;;10.98;6.18;;;;;;;11.91;65.18;102050.31;4943358;28;118042;-72
2021/12/12 10:37:14;;;;;;;15.73;6.47;;;;;;;11.93;65.20;102054.63;4934685;28;125063;-72
2021/12/12 10:40:02;;;;;;;10.85;6.03;;;;;;;11.93;65.15;102053.78;4929532;28;123572;-72
2021/12/12 10:42:36;;;;;;;12.48;6.10;;;;;;;11.93;65.00;102054.63;4935832;28;119184;-71
2021/12/12 10:45:13;;;;;;;10.25;6.13;;;;;;;11.94;65.25;102056.38;4935786;28;118964;-72
2021/12/12 10:48:01;;;;;;;10.60;6.00;;;;;;;11.95;65.24;102058.09;4935692;28;125181;-72
2021/12/12 10:50:52;;;;;;;11.57;6.03;;;;;;;11.96;65.28;102053.66;4930111;28;123936;-72
2021/12/12 10:53:46;;;;;;;11.73;5.85;;;;;;;11.98;65.37;102062.44;4932837;28;119203;-72
2021/12/12 10:56:21;;;;;;;9.80;5.65;;;;;;;12.00;65.38;102055.31;4938853;28;118732;-75
2021/12/12 10:58:53;;;;;;;9.18;5.85;;;;;;;12.00;65.21;102050.00;4934234;28;123268;-73
2021/12/12 11:01:25;;;;;;;8.65;5.57;;;;;;;12.01;65.19;102057.03;4935129;28;123816;-74
2021/12/12 11:04:01;;;;;;;11.52;5.63;;;;;;;12.03;65.39;102055.22;4936390;28;118736;-72
2021/12/12 11:06:32;;;;;;;10.65;5.28;;;;;;;12.05;65.19;102048.06;4925384;28;118120;-71
2021/12/12 11:09:17;;;;;;;10.00;5.35;;;;;;;12.07;65.32;102057.72;4933848;28;124301;-72
2021/12/12 11:12:02;;;;;;;9.43;5.13;;;;;;;12.07;65.38;102046.22;4938629;28;124808;-73
2021/12/12 11:14:35;;;;;;;8.82;5.25;;;;;;;12.08;65.01;102058.59;4943614;28;120234;-71
2021/12/12 11:17:09;;;;;;;8.40;5.15;;;;;;;12.09;65.29;102049.69;4930515;28;120474;-74
2021/12/12 11:19:44;;;;;;;8.02;4.82;;;;;;;12.11;65.49;102050.53;4932376;28;123831;-71
2021/12/12 11:22:20;;;;;;;8.37;5.07;;;;;;;12.14;65.31;102049.56;4942562;28;124184;-70
2021/12/12 11:24:56;;;;;;;9.63;4.90;;;;;;;12.15;65.49;102038.91;4939422;28;119439;-69
2021/12/12 11:27:37;;;;;;;8.00;4.70;;;;;;;12.18;65.29;102049.41;4934743;28;119013;-69
2021/12/12 11:30:07;;;;;;;7.93;4.30;;;;;;;12.19;65.43;102045.84;4932448;28;124298;-69
2021/12/12 11:32:36;;;;;;;8.38;4.57;;;;;;;12.21;65.55;102044.00;4934528;28;123641;-71
2021/12/12 11:35:10;;;;;;;6.28;4.03;;;;;;;12.24;65.44;102038.59;4937515;28;119571;-70
2021/12/12 11:37:57;;;;;;;8.00;4.50;;;;;;;12.26;65.51;102052.69;4936346;28;119586;-70
2021/12/12 11:40:35;;;;;;;8.30;4.30;;;;;;;12.31;65.37;102049.00;4946772;28;123969;-68
2021/12/12 11:43:25;;;;;;;6.70;3.90;;;;;;;12.31;65.32;102049.00;4932002;28;123864;-70
2021/12/12 11:45:58;;;;;;;8.10;4.47;;;;;;;12.34;65.43;102048.91;4928299;28;120940;-70
2021/12/12 11:48:29;;;;;;;7.43;4.05;;;;;;;12.38;65.37;102045.25;4924197;28;119656;-70
2021/12/12 11:51:15;;;;;;;10.40;4.85;;;;;;;12.37;65.38;102048.81;4927174;28;124548;-72
2021/12/12 11:53:47;;;;;;;7.57;4.70;;;;;;;12.40;65.44;102046.06;4926521;28;123626;-70
2021/12/12 11:56:23;;;;;;;8.32;4.30;;;;;;;12.43;65.70;102043.28;4926030;28;119666;-70
2021/12/12 11:59:12;;;;;;;8.45;4.15;;;;;;;12.45;65.38;102046.75;4926916;28;118985;-70
2021/12/12 12:01:51;;;;;;;9.18;4.15;;;;;;;12.46;65.66;102043.19;4925478;28;123310;-71
2021/12/12 12:04:53;;;;;;;8.93;4.43;;;;;;;12.48;65.43;102038.69;4928000;28;123220;-70